Time;durP1;ratioP1;P1;durP2;ratioP2;P2;SDS_P1;SDS_P2;PMS_P1;PMS_P2;Temp;Humidity;BMP_temperature;BMP_pressure;BME280_temperature;BME280_humidity;BME280_pressure;Samples;Min_cycle;Max_cycle;Signal;HPM_P1;HPM_P2
2022/02/25 00:01:10;;;;;;;1.63;1.40;;;3.20;98.20;;;;;;4985602;28;20480;-70
2022/02/25 00:03:37;;;;;;;1.67;1.40;;;3.20;98.20;;;;;;5033928;28;20494;-70
2022/02/25 00:06:05;;;;;;;1.60;1.40;;;3.20;98.20;;;;;;4991800;28;20468;-70
2022/02/25 00:08:33;;;;;;;1.70;1.60;;;3.20;98.20;;;;;;4992365;28;20504;-70
2022/02/25 00:10:59;;;;;;;1.60;1.40;;;3.10;98.20;;;;;;4990465;28;20460;-70
2022/02/25 00:13:26;;;;;;;1.60;1.40;;;3.10;98.20;;;;;;4997145;28;20488;-70
2022/02/25 00:15:57;;;;;;;1.67;1.40;;;3.10;98.20;;;;;;4991003;28;20461;-70
2022/02/25 00:18:24;;;;;;;1.77;1.67;;;3.10;98.20;;;;;;4991904;28;20457;-70
2022/02/25 00:20:51;;;;;;;1.70;1.50;;;3.10;98.20;;;;;;4985773;28;20472;-70
2022/02/25 00:23:19;;;;;;;1.70;1.60;;;3.10;98.20;;;;;;5056479;22;21154;-73
2022/02/25 00:25:46;;;;;;;1.67;1.50;;;3.10;98.20;;;;;;5035856;28;20458;-73
2022/02/25 00:28:13;;;;;;;1.70;1.50;;;3.10;98.20;;;;;;5031282;28;20861;-72
2022/02/25 00:30:40;;;;;;;1.60;1.40;;;3.10;98.20;;;;;;5030300;28;20503;-74
2022/02/25 00:33:07;;;;;;;1.63;1.50;;;3.10;98.20;;;;;;5035953;28;20475;-75
2022/02/25 00:35:34;;;;;;;1.67;1.47;;;3.10;98.20;;;;;;5030206;28;20466;-74
2022/02/25 00:38:00;;;;;;;1.63;1.40;;;3.10;98.20;;;;;;5037656;28;20463;-74
2022/02/25 00:40:29;;;;;;;1.70;1.60;;;3.00;98.20;;;;;;5031597;28;20455;-74
2022/02/25 00:42:56;;;;;;;1.77;1.67;;;3.00;98.20;;;;;;5040263;28;20569;-75
2022/02/25 00:45:23;;;;;;;1.67;1.53;;;3.00;98.20;;;;;;5031088;28;21122;-74
2022/02/25 00:47:49;;;;;;;1.63;1.40;;;3.00;98.20;;;;;;5035088;28;20463;-75
2022/02/25 00:50:16;;;;;;;1.63;1.40;;;3.00;98.20;;;;;;5029777;28;20519;-74
2022/02/25 00:52:43;;;;;;;1.60;1.40;;;3.00;98.20;;;;;;5030792;28;20525;-74
2022/02/25 00:55:10;;;;;;;1.70;1.50;;;3.00;98.20;;;;;;5030475;28;20459;-73
2022/02/25 00:57:44;;;;;;;1.67;1.40;;;3.00;98.20;;;;;;5032455;28;20463;-73
2022/02/25 01:00:12;;;;;;;1.70;1.50;;;3.10;98.20;;;;;;5029891;28;20495;-73
2022/02/25 01:02:39;;;;;;;1.60;1.43;;;3.00;98.20;;;;;;5030232;28;20482;-73
2022/02/25 01:05:06;;;;;;;1.70;1.60;;;3.10;98.20;;;;;;5022495;28;20463;-74
2022/02/25 01:07:32;;;;;;;1.63;1.50;;;3.10;98.20;;;;;;5030356;28;20466;-74
2022/02/25 01:09:59;;;;;;;1.67;1.40;;;3.10;98.20;;;;;;5029146;28;20490;-74
2022/02/25 01:12:26;;;;;;;1.60;1.40;;;3.10;98.20;;;;;;5031474;28;21044;-74
2022/02/25 01:14:54;;;;;;;1.63;1.50;;;3.10;98.20;;;;;;5032012;28;20486;-74
2022/02/25 01:17:21;;;;;;;1.70;1.50;;;3.10;98.20;;;;;;5029448;28;20474;-73
2022/02/25 01:19:47;;;;;;;1.67;1.47;;;3.10;98.20;;;;;;5027791;28;20456;-74
2022/02/25 01:22:14;;;;;;;1.70;1.50;;;3.10;98.20;;;;;;5025687;28;20463;-73
2022/02/25 01:24:41;;;;;;;1.60;1.50;;;3.10;98.20;;;;;;5029463;28;20494;-73
2022/02/25 01:27:09;;;;;;;1.60;1.50;;;3.10;98.20;;;;;;5033269;28;20498;-73
2022/02/25 01:29:36;;;;;;;1.67;1.50;;;3.00;98.20;;;;;;5029086;28;20490;-73
2022/02/25 01:32:05;;;;;;;1.70;1.60;;;3.00;98.20;;;;;;5032210;28;20513;-74
2022/02/25 01:34:32;;;;;;;1.67;1.43;;;3.00;98.20;;;;;;5034041;28;21028;-74
2022/02/25 01:36:58;;;;;;;1.60;1.40;;;3.10;98.20;;;;;;5033789;28;20463;-76
2022/02/25 01:39:25;;;;;;;1.67;1.50;;;3.10;98.20;;;;;;5028857;28;20802;-75
2022/02/25 01:41:52;;;;;;;1.70;1.60;;;3.00;98.20;;;;;;5029438;28;20463;-74
2022/02/25 01:44:22;;;;;;;1.67;1.57;;;3.00;98.20;;;;;;5029025;28;20486;-74
2022/02/25 01:46:50;;;;;;;1.60;1.40;;;3.10;98.20;;;;;;5026569;28;20486;-75
2022/02/25 01:49:19;;;;;;;1.60;1.50;;;3.10;98.20;;;;;;5032583;28;20530;-76
2022/02/25 01:51:47;;;;;;;1.60;1.40;;;3.10;98.20;;;;;;5029828;28;21106;-74
2022/02/25 01:54:14;;;;;;;1.63;1.50;;;3.10;98.20;;;;;;5028664;28;21045;-74
2022/02/25 01:56:42;;;;;;;1.80;1.70;;;3.10;98.20;;;;;;5030085;28;20466;-75
2022/02/25 01:59:10;;;;;;;1.70;1.47;;;3.10;98.20;;;;;;5028194;28;20455;-74
2022/02/25 02:01:38;;;;;;;1.70;1.50;;;3.00;98.20;;;;;;5023749;28;20482;-75
2022/02/25 02:04:05;;;;;;;1.70;1.60;;;3.00;98.20;;;;;;5025912;28;20483;-75
2022/02/25 02:06:34;;;;;;;1.60;1.50;;;3.00;98.20;;;;;;5032584;28;20461;-74
2022/02/25 02:09:01;;;;;;;1.60;1.50;;;3.00;98.20;;;;;;5023582;28;20491;-74
2022/02/25 02:11:30;;;;;;;1.67;1.50;;;3.00;98.20;;;;;;5032654;28;20466;-75
2022/02/25 02:13:57;;;;;;;1.67;1.50;;;3.00;98.20;;;;;;5029593;28;20483;-76
2022/02/25 02:16:25;;;;;;;1.70;1.40;;;3.00;98.20;;;;;;5021744;28;20469;-75
2022/02/25 02:18:51;;;;;;;1.70;1.50;;;3.00;98.20;;;;;;5039820;28;20494;-75
2022/02/25 02:21:21;;;;;;;1.60;1.40;;;3.00;98.20;;;;;;5031179;28;20461;-75
2022/02/25 02:23:49;;;;;;;1.60;1.40;;;3.00;98.20;;;;;;5028489;28;20489;-75
2022/02/25 02:26:16;;;;;;;1.70;1.50;;;3.00;98.20;;;;;;5031584;28;20482;-74
2022/02/25 02:28:43;;;;;;;1.63;1.40;;;3.00;98.20;;;;;;5029708;28;20459;-77
2022/02/25 02:31:10;;;;;;;1.70;1.60;;;3.00;98.20;;;;;;5028280;28;21050;-77
2022/02/25 02:33:37;;;;;;;1.70;1.40;;;3.00;98.20;;;;;;5029091;28;20486;-75
2022/02/25 02:36:04;;;;;;;1.63;1.40;;;3.00;98.20;;;;;;5029710;28;21375;-76
2022/02/25 02:38:31;;;;;;;1.70;1.53;;;3.00;98.20;;;;;;5028395;28;20463;-74
2022/02/25 02:41:00;;;;;;;1.60;1.50;;;3.00;98.20;;;;;;5018431;28;20456;-75
2022/02/25 02:43:26;;;;;;;1.60;1.43;;;3.00;98.20;;;;;;5043064;28;20498;-74
2022/02/25 02:45:53;;;;;;;2.20;2.00;;;3.00;98.20;;;;;;5029331;28;21143;-75
2022/02/25 02:48:20;;;;;;;1.60;1.40;;;3.00;98.20;;;;;;5021507;28;20474;-75
2022/02/25 02:50:47;;;;;;;3.60;3.40;;;3.00;98.20;;;;;;5020808;28;20495;-77
2022/02/25 02:53:14;;;;;;;1.63;1.50;;;3.00;98.20;;;;;;5026320;28;20489;-76
2022/02/25 02:55:42;;;;;;;1.70;1.50;;;3.00;98.20;;;;;;5032171;28;20566;-75
2022/02/25 02:58:11;;;;;;;1.70;1.60;;;3.00;98.20;;;;;;5037317;28;20478;-75
2022/02/25 03:00:39;;;;;;;1.70;1.50;;;2.90;98.20;;;;;;5032442;28;20462;-73
2022/02/25 03:03:08;;;;;;;1.70;1.50;;;2.90;98.20;;;;;;5037186;28;20490;-75
2022/02/25 03:05:36;;;;;;;1.70;1.60;;;2.90;98.20;;;;;;5031671;28;20466;-75
2022/02/25 03:08:04;;;;;;;1.60;1.50;;;2.90;98.20;;;;;;5032639;28;20555;-74
2022/02/25 03:10:31;;;;;;;1.70;1.40;;;2.90;98.20;;;;;;5032430;28;20855;-76
2022/02/25 03:12:58;;;;;;;1.60;1.40;;;2.80;98.20;;;;;;5034039;28;21160;-75
2022/02/25 03:15:26;;;;;;;1.70;1.50;;;2.80;98.20;;;;;;5026528;28;20531;-75
2022/02/25 03:17:53;;;;;;;1.63;1.50;;;2.80;98.20;;;;;;5027053;28;20495;-75
2022/02/25 03:20:22;;;;;;;1.70;1.53;;;2.80;98.20;;;;;;5030706;28;20962;-73
2022/02/25 03:22:49;;;;;;;1.63;1.40;;;2.80;98.20;;;;;;5032585;28;20567;-78
2022/02/25 03:25:17;;;;;;;1.70;1.40;;;2.80;98.20;;;;;;5032625;28;20467;-74
2022/02/25 03:27:43;;;;;;;1.63;1.43;;;2.80;98.20;;;;;;5037409;28;20494;-74
2022/02/25 03:30:11;;;;;;;1.70;1.60;;;2.70;98.20;;;;;;5032786;28;20991;-75
2022/02/25 03:32:42;;;;;;;1.70;1.60;;;2.70;98.20;;;;;;5039261;28;20466;-74
2022/02/25 03:35:10;;;;;;;1.70;1.40;;;2.70;98.20;;;;;;5032083;28;20467;-74
2022/02/25 03:37:37;;;;;;;1.70;1.60;;;2.70;98.20;;;;;;5040460;28;20482;-73
2022/02/25 03:40:05;;;;;;;1.70;1.50;;;2.70;98.20;;;;;;5032856;28;20933;-73
2022/02/25 03:42:32;;;;;;;1.70;1.50;;;2.70;98.20;;;;;;5028842;28;20463;-73
2022/02/25 03:44:59;;;;;;;1.67;1.40;;;2.70;98.20;;;;;;5032009;28;20482;-76
2022/02/25 03:47:25;;;;;;;1.70;1.50;;;2.70;98.20;;;;;;5034763;28;20462;-75
2022/02/25 03:49:54;;;;;;;1.67;1.50;;;2.60;98.20;;;;;;5031788;28;20483;-74
2022/02/25 03:52:20;;;;;;;1.60;1.40;;;2.60;98.20;;;;;;5030254;28;20463;-74
2022/02/25 03:54:47;;;;;;;1.70;1.60;;;2.60;98.20;;;;;;5032182;28;20483;-74
2022/02/25 03:57:14;;;;;;;1.67;1.50;;;2.60;98.20;;;;;;5033785;28;20471;-75
2022/02/25 03:59:41;;;;;;;1.67;1.50;;;2.60;98.20;;;;;;5031420;28;20478;-74
2022/02/25 04:02:08;;;;;;;1.70;1.50;;;2.60;98.20;;;;;;5032268;28;20964;-75
2022/02/25 04:04:34;;;;;;;1.63;1.40;;;2.60;98.20;;;;;;5030771;28;20475;-73
2022/02/25 04:07:03;;;;;;;1.63;1.50;;;2.60;98.20;;;;;;5031936;28;20459;-73
2022/02/25 04:09:29;;;;;;;1.70;1.50;;;2.60;98.20;;;;;;5031303;28;20459;-74
2022/02/25 04:11:56;;;;;;;1.70;1.60;;;2.50;98.20;;;;;;5030423;28;20511;-75
2022/02/25 04:14:24;;;;;;;1.60;1.40;;;2.50;98.20;;;;;;5036209;28;20475;-75
2022/02/25 04:16:52;;;;;;;1.60;1.50;;;2.50;98.20;;;;;;5036650;28;20458;-75
2022/02/25 04:19:20;;;;;;;1.60;1.50;;;2.50;98.20;;;;;;5029993;28;20467;-74
2022/02/25 04:21:47;;;;;;;1.70;1.50;;;2.50;98.20;;;;;;5029104;28;21243;-75
2022/02/25 04:24:16;;;;;;;1.60;1.50;;;2.50;98.20;;;;;;5038948;28;20494;-75
2022/02/25 04:26:43;;;;;;;1.70;1.57;;;2.50;98.20;;;;;;5035504;28;20565;-75
2022/02/25 04:29:10;;;;;;;1.60;1.40;;;2.50;98.20;;;;;;5030810;28;20490;-74
2022/02/25 04:31:37;;;;;;;1.60;1.50;;;2.50;98.20;;;;;;5028365;28;20563;-76
2022/02/25 04:34:03;;;;;;;1.70;1.50;;;2.40;98.20;;;;;;5031199;28;20483;-78
2022/02/25 04:36:33;;;;;;;1.63;1.53;;;2.40;98.20;;;;;;5033098;28;20825;-74
2022/02/25 04:39:00;;;;;;;1.77;1.67;;;2.40;98.20;;;;;;5031818;28;20553;-74
2022/02/25 04:41:28;;;;;;;1.70;1.60;;;2.40;98.20;;;;;;5031884;28;20954;-74
2022/02/25 04:43:55;;;;;;;1.70;1.60;;;2.40;98.20;;;;;;5030380;28;20483;-73
2022/02/25 04:46:26;;;;;;;1.70;1.57;;;2.40;98.20;;;;;;5025380;28;20490;-74
2022/02/25 04:48:53;;;;;;;1.67;1.50;;;2.40;98.20;;;;;;5038028;28;20464;-76
2022/02/25 04:51:21;;;;;;;1.63;1.40;;;2.40;98.20;;;;;;5029708;28;20526;-74
2022/02/25 04:53:49;;;;;;;1.63;1.50;;;2.40;98.20;;;;;;5030694;28;20511;-77
2022/02/25 04:56:16;;;;;;;1.67;1.50;;;2.40;98.20;;;;;;5030439;28;20568;-74
2022/02/25 04:58:44;;;;;;;1.70;1.57;;;2.40;98.20;;;;;;5033373;28;20474;-76
2022/02/25 05:01:11;;;;;;;1.70;1.60;;;2.40;98.20;;;;;;5029631;28;20468;-75
2022/02/25 05:03:38;;;;;;;1.80;1.70;;;2.40;98.20;;;;;;5030703;28;20577;-76
2022/02/25 05:06:05;;;;;;;1.60;1.43;;;2.40;98.20;;;;;;5031666;28;20459;-75
2022/02/25 05:08:32;;;;;;;1.70;1.50;;;2.40;98.20;;;;;;5032864;28;20557;-74
2022/02/25 05:10:59;;;;;;;1.67;1.50;;;2.30;98.20;;;;;;5030661;28;20490;-77
2022/02/25 05:13:26;;;;;;;1.63;1.50;;;2.30;98.20;;;;;;5027646;28;20479;-74
2022/02/25 05:21:24;;;;;;;1.60;1.50;;;2.20;98.20;;;;;;5024205;28;21148;-75
2022/02/25 05:23:51;;;;;;;1.83;1.73;;;2.20;98.20;;;;;;5040365;28;20494;-74
2022/02/25 05:26:17;;;;;;;1.67;1.50;;;2.20;98.20;;;;;;5025095;28;20474;-74
2022/02/25 05:28:44;;;;;;;1.67;1.50;;;2.20;98.20;;;;;;5029025;28;20837;-77
2022/02/25 05:31:14;;;;;;;1.60;1.50;;;2.20;98.20;;;;;;5021809;28;20576;-74
2022/02/25 05:33:41;;;;;;;1.63;1.50;;;2.20;98.20;;;;;;5042639;28;20485;-75
2022/02/25 05:36:08;;;;;;;1.60;1.50;;;2.20;98.20;;;;;;5029848;28;20574;-76
2022/02/25 05:38:35;;;;;;;1.70;1.60;;;2.20;98.20;;;;;;5029408;28;20839;-73
2022/02/25 05:41:02;;;;;;;1.60;1.50;;;2.20;98.20;;;;;;5028770;28;20451;-74
2022/02/25 05:43:29;;;;;;;1.67;1.50;;;2.20;98.20;;;;;;5029097;28;20487;-76
2022/02/25 05:45:56;;;;;;;1.63;1.50;;;2.20;98.20;;;;;;5029142;28;20463;-77
2022/02/25 05:48:25;;;;;;;1.70;1.60;;;2.20;98.20;;;;;;5028715;28;20471;-75
2022/02/25 05:50:51;;;;;;;1.67;1.57;;;2.20;98.20;;;;;;5024523;28;20498;-75
2022/02/25 05:53:19;;;;;;;1.70;1.60;;;2.30;98.20;;;;;;5027384;28;20579;-73
2022/02/25 05:55:45;;;;;;;1.70;1.60;;;2.30;98.20;;;;;;5028262;28;20533;-74
2022/02/25 05:58:13;;;;;;;1.80;1.70;;;2.20;98.20;;;;;;5031290;28;20466;-75
2022/02/25 06:00:40;;;;;;;1.80;1.70;;;2.20;98.20;;;;;;5028786;28;20863;-77
2022/02/25 06:03:07;;;;;;;1.67;1.47;;;2.20;98.20;;;;;;5030793;28;20485;-76
2022/02/25 06:05:36;;;;;;;1.60;1.40;;;2.20;98.20;;;;;;5028523;28;20459;-72
2022/02/25 06:08:02;;;;;;;1.70;1.60;;;2.20;98.20;;;;;;5030867;28;20466;-74
2022/02/25 06:10:29;;;;;;;1.63;1.50;;;2.20;98.20;;;;;;5018290;28;20875;-73
2022/02/25 06:12:56;;;;;;;1.87;1.77;;;2.20;98.20;;;;;;5029811;28;20459;-76
2022/02/25 06:15:23;;;;;;;1.67;1.50;;;2.20;98.20;;;;;;5027918;28;21126;-76
2022/02/25 06:17:51;;;;;;;1.63;1.50;;;2.20;98.20;;;;;;5029667;28;20996;-74
2022/02/25 06:20:19;;;;;;;1.77;1.67;;;2.30;98.20;;;;;;5026416;28;20455;-74
2022/02/25 06:22:48;;;;;;;1.60;1.50;;;2.30;98.20;;;;;;5017274;28;20490;-73
2022/02/25 06:25:15;;;;;;;1.60;1.50;;;2.30;98.20;;;;;;5041373;22;20496;-71
2022/02/25 06:27:42;;;;;;;1.70;1.50;;;2.30;98.20;;;;;;5007958;28;20456;-71
2022/02/25 06:30:11;;;;;;;1.70;1.50;;;2.30;98.20;;;;;;5013346;28;20466;-72
2022/02/25 06:32:39;;;;;;;1.73;1.63;;;2.30;98.20;;;;;;5012277;28;20471;-70
2022/02/25 06:35:07;;;;;;;1.67;1.53;;;2.40;98.20;;;;;;5012136;28;20487;-69
2022/02/25 06:37:34;;;;;;;1.60;1.50;;;2.40;98.20;;;;;;5012499;28;20464;-71
2022/02/25 06:40:03;;;;;;;1.70;1.50;;;2.40;98.20;;;;;;5011623;28;20466;-70
2022/02/25 06:42:29;;;;;;;1.60;1.47;;;2.40;98.20;;;;;;5012158;28;20972;-70
2022/02/25 06:44:56;;;;;;;1.60;1.43;;;2.50;98.20;;;;;;5009693;28;20491;-70
2022/02/25 06:47:23;;;;;;;1.83;1.73;;;2.50;98.20;;;;;;5011546;28;20463;-71
2022/02/25 06:49:50;;;;;;;1.63;1.50;;;2.60;98.20;;;;;;5011170;28;20491;-70
2022/02/25 06:52:16;;;;;;;1.60;1.40;;;2.60;98.20;;;;;;5010043;28;20506;-70
2022/02/25 06:54:43;;;;;;;1.90;1.80;;;2.70;98.20;;;;;;5008100;28;20491;-69
2022/02/25 06:57:12;;;;;;;1.60;1.40;;;2.70;98.20;;;;;;5011432;28;20464;-70
2022/02/25 06:59:39;;;;;;;1.70;1.50;;;2.80;98.20;;;;;;5010914;28;20455;-70
2022/02/25 07:02:06;;;;;;;1.73;1.63;;;2.80;98.20;;;;;;5011276;28;20854;-69
2022/02/25 07:04:33;;;;;;;1.70;1.57;;;2.90;98.20;;;;;;5008198;28;20493;-70
2022/02/25 07:06:59;;;;;;;1.70;1.40;;;2.90;98.20;;;;;;5011293;28;20471;-70
2022/02/25 07:09:26;;;;;;;1.73;1.63;;;3.00;98.20;;;;;;5008012;28;20487;-70
2022/02/25 07:11:53;;;;;;;1.63;1.40;;;3.00;98.20;;;;;;5007079;28;20487;-70
2022/02/25 07:14:21;;;;;;;1.60;1.43;;;3.10;98.20;;;;;;5010906;28;20483;-70
2022/02/25 07:16:48;;;;;;;1.70;1.60;;;3.20;98.20;;;;;;5011264;28;20467;-70
2022/02/25 07:19:14;;;;;;;1.60;1.40;;;3.20;98.20;;;;;;5010770;28;20467;-70
2022/02/25 07:21:41;;;;;;;1.70;1.60;;;3.30;98.20;;;;;;5005171;28;20487;-71
2022/02/25 07:24:08;;;;;;;1.73;1.63;;;3.30;98.20;;;;;;5017904;28;20496;-71
2022/02/25 07:26:35;;;;;;;1.67;1.47;;;3.40;98.20;;;;;;5005069;28;20483;-70
2022/02/25 07:29:01;;;;;;;1.63;1.40;;;3.40;98.20;;;;;;5018669;28;20465;-70
2022/02/25 07:31:30;;;;;;;1.67;1.40;;;3.50;98.20;;;;;;5004805;28;21073;-70
2022/02/25 07:33:57;;;;;;;1.70;1.40;;;3.50;98.20;;;;;;5019018;28;20460;-69
2022/02/25 07:36:24;;;;;;;1.70;1.50;;;3.60;98.20;;;;;;5001726;28;20489;-70
2022/02/25 07:38:51;;;;;;;1.60;1.30;;;3.70;98.20;;;;;;5021168;28;20811;-71
2022/02/25 07:41:18;;;;;;;1.70;1.57;;;3.70;98.20;;;;;;5009279;28;20471;-74
2022/02/25 07:43:45;;;;;;;1.70;1.57;;;3.80;98.20;;;;;;5011491;28;20464;-71
2022/02/25 07:46:12;;;;;;;1.70;1.50;;;3.90;98.20;;;;;;5008084;28;20494;-71
2022/02/25 07:48:40;;;;;;;1.67;1.30;;;4.00;98.20;;;;;;5010654;28;20464;-70
2022/02/25 07:51:07;;;;;;;1.70;1.50;;;4.00;98.20;;;;;;4999349;28;21145;-72
2022/02/25 07:53:34;;;;;;;1.70;1.57;;;4.10;98.20;;;;;;5013435;28;20468;-71
2022/02/25 07:56:01;;;;;;;1.70;1.50;;;4.10;98.20;;;;;;5009875;28;20498;-71
2022/02/25 07:58:29;;;;;;;1.67;1.40;;;4.10;98.20;;;;;;5011464;28;20464;-73
2022/02/25 08:00:56;;;;;;;1.60;1.40;;;4.10;98.20;;;;;;5009900;28;21090;-71
2022/02/25 08:03:23;;;;;;;1.60;1.40;;;4.20;98.20;;;;;;5011188;28;21037;-70
2022/02/25 08:05:51;;;;;;;1.70;1.53;;;4.20;98.20;;;;;;5011540;28;20920;-70
2022/02/25 08:08:18;;;;;;;1.60;1.33;;;4.20;98.20;;;;;;5010213;28;20456;-69
2022/02/25 08:10:46;;;;;;;1.60;1.30;;;4.30;98.20;;;;;;5009822;28;20514;-70
2022/02/25 08:13:13;;;;;;;1.63;1.37;;;4.30;98.20;;;;;;5011599;28;20460;-69
2022/02/25 08:15:42;;;;;;;1.60;1.40;;;4.30;98.20;;;;;;5009717;28;20487;-69
2022/02/25 08:18:09;;;;;;;1.63;1.40;;;4.40;98.20;;;;;;5010825;28;20553;-70
2022/02/25 08:20:39;;;;;;;1.70;1.43;;;4.50;98.20;;;;;;5010190;28;20471;-74
2022/02/25 08:23:09;;;;;;;1.60;1.30;;;4.50;98.20;;;;;;5011574;28;20597;-70
2022/02/25 08:25:37;;;;;;;1.60;1.30;;;4.60;98.20;;;;;;5010379;28;20499;-70
2022/02/25 08:28:06;;;;;;;1.60;1.40;;;4.70;98.20;;;;;;5010431;28;20887;-68
2022/02/25 08:30:32;;;;;;;1.70;1.47;;;4.70;98.20;;;;;;5011375;28;20502;-67
2022/02/25 08:33:02;;;;;;;1.60;1.20;;;4.80;98.20;;;;;;5009757;28;20484;-68
2022/02/25 08:35:30;;;;;;;1.60;1.30;;;4.80;98.20;;;;;;5013280;28;20509;-68
2022/02/25 08:37:58;;;;;;;1.60;1.30;;;4.90;98.20;;;;;;5009461;28;20468;-68
2022/02/25 08:40:27;;;;;;;1.63;1.40;;;4.90;98.20;;;;;;5007754;28;20471;-68
2022/02/25 08:42:56;;;;;;;1.63;1.40;;;4.90;98.20;;;;;;5009847;28;20464;-69
2022/02/25 08:45:23;;;;;;;1.60;1.30;;;4.90;98.20;;;;;;5010455;28;20869;-69
2022/02/25 08:47:50;;;;;;;1.60;1.30;;;4.90;98.20;;;;;;5009389;28;20467;-69
2022/02/25 08:50:19;;;;;;;1.60;1.40;;;4.90;98.20;;;;;;5011146;28;20519;-70
2022/02/25 08:52:49;;;;;;;1.60;1.30;;;4.90;98.20;;;;;;5009003;28;20488;-70
2022/02/25 08:55:16;;;;;;;1.60;1.30;;;4.90;98.20;;;;;;5009718;28;20488;-72
2022/02/25 08:57:45;;;;;;;1.60;1.40;;;4.90;98.20;;;;;;5010495;28;20468;-71
2022/02/25 09:00:15;;;;;;;1.60;1.30;;;4.90;98.20;;;;;;5007615;28;20487;-70
2022/02/25 09:02:41;;;;;;;1.60;1.30;;;4.90;98.20;;;;;;5006997;28;20503;-70
2022/02/25 09:05:09;;;;;;;1.60;1.40;;;4.90;98.20;;;;;;5009920;28;21015;-71
2022/02/25 09:07:36;;;;;;;1.60;1.37;;;5.00;98.20;;;;;;5009897;28;20471;-71
2022/02/25 09:10:04;;;;;;;1.70;1.50;;;5.00;98.20;;;;;;5008089;28;20470;-71
2022/02/25 09:12:31;;;;;;;1.70;1.50;;;5.00;98.20;;;;;;5008009;28;20498;-70
2022/02/25 09:15:00;;;;;;;1.67;1.50;;;5.10;98.20;;;;;;5008718;28;20491;-71
2022/02/25 09:17:27;;;;;;;1.60;1.30;;;5.10;98.20;;;;;;5009476;28;20471;-71
2022/02/25 09:19:54;;;;;;;1.70;1.50;;;5.10;98.20;;;;;;5007687;28;20471;-71
2022/02/25 09:22:20;;;;;;;1.60;1.33;;;5.20;98.20;;;;;;5008379;28;20467;-70
2022/02/25 09:24:47;;;;;;;1.60;1.40;;;5.30;98.20;;;;;;5009389;28;20498;-70
2022/02/25 09:27:14;;;;;;;1.60;1.40;;;5.30;98.20;;;;;;5009872;28;20466;-70
2022/02/25 09:29:41;;;;;;;1.60;1.37;;;5.40;98.20;;;;;;5008285;28;20472;-71
2022/02/25 09:32:09;;;;;;;1.60;1.30;;;5.40;98.20;;;;;;5008650;28;21077;-70
2022/02/25 09:34:36;;;;;;;1.60;1.40;;;5.50;98.20;;;;;;5008807;28;20493;-70
2022/02/25 09:37:04;;;;;;;1.60;1.30;;;5.60;98.20;;;;;;5007985;28;20515;-71
2022/02/25 09:39:30;;;;;;;1.60;1.30;;;5.70;98.20;;;;;;5009394;28;20815;-71
2022/02/25 09:41:58;;;;;;;1.60;1.20;;;5.70;98.20;;;;;;5008674;28;20463;-71
2022/02/25 09:44:26;;;;;;;1.60;1.30;;;5.80;98.20;;;;;;5009386;28;20834;-71
2022/02/25 09:46:53;;;;;;;1.60;1.30;;;5.90;98.20;;;;;;5009122;28;20486;-71
2022/02/25 09:49:21;;;;;;;2.70;2.50;;;6.00;98.20;;;;;;5007829;28;20499;-71
2022/02/25 09:51:48;;;;;;;1.60;1.30;;;6.20;98.20;;;;;;5009271;28;20487;-71
2022/02/25 09:54:16;;;;;;;1.60;1.40;;;6.20;98.20;;;;;;5007612;28;20480;-71
2022/02/25 09:56:44;;;;;;;1.60;1.20;;;6.30;98.20;;;;;;5008246;28;20464;-71
2022/02/25 09:59:11;;;;;;;1.60;1.40;;;6.30;98.20;;;;;;5009495;28;20468;-72
2022/02/25 10:01:37;;;;;;;1.80;1.70;;;6.30;98.20;;;;;;5007667;28;20838;-72
2022/02/25 10:04:11;;;;;;;1.60;1.40;;;6.20;98.20;;;;;;5007036;28;20468;-72
2022/02/25 10:06:40;;;;;;;1.60;1.20;;;6.30;98.20;;;;;;5004355;28;20478;-73
2022/02/25 10:09:15;;;;;;;1.60;1.40;;;6.30;98.20;;;;;;5017252;28;20464;-74
2022/02/25 10:12:00;;;;;;;1.60;1.40;;;6.30;98.20;;;;;;5003030;28;20483;-72
2022/02/25 10:14:31;;;;;;;1.70;1.53;;;6.30;98.20;;;;;;5007776;28;20490;-71
2022/02/25 10:17:12;;;;;;;1.60;1.30;;;6.40;98.20;;;;;;5008325;28;20468;-70
2022/02/25 10:19:40;;;;;;;1.60;1.37;;;6.50;98.20;;;;;;5007164;28;20488;-71
2022/02/25 10:22:22;;;;;;;1.60;1.20;;;6.70;98.20;;;;;;5006953;28;20471;-69
2022/02/25 10:24:51;;;;;;;1.60;1.40;;;6.80;98.20;;;;;;5005936;28;20487;-69
2022/02/25 10:27:23;;;;;;;1.60;1.20;;;7.00;98.20;;;;;;5007607;28;20540;-69
2022/02/25 10:29:58;;;;;;;1.60;1.30;;;7.20;98.20;;;;;;5008074;28;20475;-70
2022/02/25 10:32:34;;;;;;;1.60;1.30;;;7.40;98.20;;;;;;5007219;28;20487;-70
2022/02/25 10:35:01;;;;;;;1.60;1.30;;;7.60;98.20;;;;;;5008638;28;20484;-70
2022/02/25 10:37:30;;;;;;;1.60;1.20;;;7.80;98.20;;;;;;5007430;28;20519;-70
2022/02/25 10:39:57;;;;;;;1.60;1.27;;;8.00;98.20;;;;;;5007820;28;20466;-73
2022/02/25 10:42:24;;;;;;;1.60;1.17;;;8.20;98.20;;;;;;5009228;28;20490;-69
2022/02/25 10:44:57;;;;;;;1.60;1.20;;;8.30;98.20;;;;;;5009006;28;20528;-70
2022/02/25 10:47:26;;;;;;;1.60;1.40;;;8.30;98.20;;;;;;5009332;28;20568;-69
2022/02/25 10:50:02;;;;;;;1.60;1.20;;;8.30;98.20;;;;;;5009293;28;20472;-72
2022/02/25 10:52:36;;;;;;;1.60;1.20;;;8.20;98.20;;;;;;5007738;28;20491;-72
2022/02/25 10:55:05;;;;;;;1.60;1.13;;;8.20;98.20;;;;;;5007608;28;20484;-72
2022/02/25 10:57:36;;;;;;;1.60;1.20;;;8.20;98.20;;;;;;5007887;28;20459;-73
2022/02/25 11:00:07;;;;;;;1.60;1.30;;;8.20;98.20;;;;;;5007828;28;20472;-72
2022/02/25 11:02:35;;;;;;;1.60;1.40;;;8.20;98.20;;;;;;5006609;28;20559;-71
2022/02/25 11:05:06;;;;;;;1.60;1.20;;;8.20;98.20;;;;;;5006964;28;20500;-72
2022/02/25 11:07:36;;;;;;;1.60;1.20;;;8.20;98.20;;;;;;5003391;28;20933;-72
2022/02/25 11:10:04;;;;;;;1.60;1.20;;;8.40;98.20;;;;;;5005869;28;21085;-72
2022/02/25 11:12:32;;;;;;;1.83;1.73;;;8.80;98.20;;;;;;5006907;28;20507;-72
2022/02/25 11:15:00;;;;;;;1.60;1.20;;;9.10;98.20;;;;;;5008229;28;20494;-71
2022/02/25 11:17:28;;;;;;;1.60;1.20;;;9.20;97.50;;;;;;5011352;28;20514;-72
2022/02/25 11:19:58;;;;;;;1.60;1.20;;;9.20;96.50;;;;;;5010189;28;20511;-72
2022/02/25 11:22:25;;;;;;;1.60;1.40;;;9.10;96.90;;;;;;5010329;28;20488;-72
2022/02/25 11:24:54;;;;;;;1.60;1.40;;;8.90;97.40;;;;;;5010758;28;20499;-71
2022/02/25 11:27:21;;;;;;;1.53;1.13;;;8.80;97.60;;;;;;5010700;28;20460;-71
2022/02/25 11:29:58;;;;;;;1.60;1.50;;;8.60;98.10;;;;;;5011254;28;20468;-71
2022/02/25 11:32:33;;;;;;;1.60;1.20;;;8.50;98.20;;;;;;5010978;28;20530;-71
2022/02/25 11:35:00;;;;;;;1.60;1.20;;;8.40;98.20;;;;;;5011060;28;20537;-72
2022/02/25 11:37:44;;;;;;;1.60;1.20;;;8.40;98.20;;;;;;5011193;28;20460;-72
2022/02/25 11:40:13;;;;;;;1.60;1.20;;;8.30;98.20;;;;;;5010889;28;20590;-70
2022/02/25 11:42:40;;;;;;;1.57;1.20;;;8.20;98.20;;;;;;5011263;28;20460;-71
2022/02/25 11:45:28;;;;;;;1.60;1.20;;;8.20;98.20;;;;;;5010988;28;20484;-71
2022/02/25 11:47:58;;;;;;;1.60;1.30;;;8.30;98.20;;;;;;5009988;28;20464;-73
2022/02/25 11:50:36;;;;;;;1.60;1.20;;;8.50;98.20;;;;;;5008374;28;20873;-70
2022/02/25 11:53:17;;;;;;;1.60;1.20;;;8.70;98.20;;;;;;5009020;28;20487;-69
2022/02/25 11:55:45;;;;;;;1.57;1.20;;;8.80;98.20;;;;;;5008161;28;21078;-72
2022/02/25 11:58:44;;;;;;;1.60;1.20;;;9.00;98.20;;;;;;5010089;28;20460;-73
2022/02/25 12:01:13;;;;;;;1.60;1.20;;;9.20;98.20;;;;;;5008904;28;20456;-70
2022/02/25 12:04:09;;;;;;;1.60;1.13;;;9.30;97.30;;;;;;5005641;28;20460;-70
2022/02/25 12:07:02;;;;;;;1.60;1.30;;;9.50;97.60;;;;;;5004634;28;20464;-71
2022/02/25 12:09:48;;;;;;;1.60;1.17;;;9.70;97.30;;;;;;5005009;28;20522;-71
2022/02/25 12:12:35;;;;;;;1.60;1.20;;;9.90;95.90;;;;;;5010374;28;20571;-71
2022/02/25 12:15:05;;;;;;;1.60;1.17;;;10.00;96.10;;;;;;5006704;28;20476;-71
2022/02/25 12:17:41;;;;;;;1.60;1.20;;;10.10;94.80;;;;;;5010857;28;20468;-73
2022/02/25 12:20:10;;;;;;;1.57;1.10;;;10.00;94.50;;;;;;5009617;28;21047;-71
2022/02/25 12:22:55;;;;;;;1.57;1.10;;;9.80;95.00;;;;;;5010038;28;20465;-71
2022/02/25 12:25:44;;;;;;;1.60;1.17;;;9.60;95.70;;;;;;5010390;28;21103;-71
2022/02/25 12:28:48;;;;;;;1.60;1.30;;;9.40;96.10;;;;;;5009044;28;20463;-71
2022/02/25 12:31:18;;;;;;;1.60;1.20;;;9.20;96.80;;;;;;5007888;28;20849;-71
2022/02/25 12:34:01;;;;;;;1.60;1.20;;;9.00;97.70;;;;;;5010771;28;20488;-69
2022/02/25 12:36:47;;;;;;;1.57;1.17;;;8.80;97.50;;;;;;5010376;28;20960;-70
2022/02/25 12:39:32;;;;;;;1.60;1.20;;;8.70;98.00;;;;;;5009176;28;20460;-71
2022/02/25 12:42:01;;;;;;;1.57;1.20;;;8.50;98.20;;;;;;5012485;28;20464;-70
2022/02/25 12:44:31;;;;;;;1.60;1.10;;;8.40;98.20;;;;;;5009484;28;21403;-70
2022/02/25 12:47:01;;;;;;;1.60;1.20;;;8.20;98.20;;;;;;5009897;28;20495;-70
2022/02/25 12:49:31;;;;;;;1.53;1.20;;;8.00;98.20;;;;;;5007363;28;20508;-70
2022/02/25 12:52:00;;;;;;;1.53;1.10;;;7.90;98.20;;;;;;5004363;28;20467;-69
2022/02/25 12:54:28;;;;;;;1.57;1.20;;;7.70;98.20;;;;;;5009851;28;20480;-70
2022/02/25 12:56:58;;;;;;;1.60;1.20;;;7.40;98.20;;;;;;5009598;28;20535;-70
2022/02/25 12:59:33;;;;;;;1.60;1.30;;;7.20;98.20;;;;;;5009412;28;20467;-71
2022/02/25 13:02:03;;;;;;;1.60;1.10;;;7.00;98.20;;;;;;5009016;28;20459;-69
2022/02/25 13:04:31;;;;;;;1.60;1.30;;;6.90;98.20;;;;;;5008907;28;20484;-70
2022/02/25 13:07:00;;;;;;;1.53;1.20;;;6.90;98.20;;;;;;5009662;28;20468;-70
2022/02/25 13:09:29;;;;;;;1.60;1.40;;;6.80;98.20;;;;;;5009837;28;20471;-69
2022/02/25 13:11:58;;;;;;;1.60;1.20;;;6.70;98.20;;;;;;5007603;28;20478;-68